createdAt,value
2019-03-15T00:02:13.809Z,0.70
2019-03-15T00:04:43.421Z,0.70
2019-03-15T00:07:13.125Z,0.60
2019-03-15T00:09:42.757Z,0.67
2019-03-15T00:12:12.406Z,0.70
2019-03-15T00:14:42.007Z,0.70
2019-03-15T00:17:11.630Z,0.60
2019-03-15T00:19:41.261Z,0.80
2019-03-15T00:22:11.053Z,0.80
2019-03-15T00:24:40.677Z,0.70
2019-03-15T00:27:10.269Z,0.70
2019-03-15T00:29:39.929Z,0.60
2019-03-15T00:32:12.602Z,0.60
2019-03-15T00:34:42.752Z,0.60
2019-03-15T00:37:12.459Z,0.60
2019-03-15T00:39:44.785Z,0.70
2019-03-15T00:42:14.409Z,0.70
2019-03-15T00:44:44.041Z,0.70
2019-03-15T00:47:13.685Z,1.13
2019-03-15T00:49:43.282Z,0.60
2019-03-15T00:52:12.921Z,0.60
2019-03-15T00:54:42.697Z,0.70
2019-03-15T00:57:12.317Z,0.80
2019-03-15T00:59:41.937Z,0.80
2019-03-15T01:02:11.639Z,0.73
2019-03-15T01:04:41.270Z,0.83
2019-03-15T01:07:10.969Z,0.70
2019-03-15T01:09:40.595Z,0.60
2019-03-15T01:12:10.222Z,0.87
2019-03-15T01:14:39.895Z,0.87
2019-03-15T01:17:09.811Z,0.70
2019-03-15T01:19:39.429Z,0.60
2019-03-15T01:22:09.436Z,0.83
2019-03-15T01:24:39.340Z,0.80
2019-03-15T01:27:09.070Z,0.70
2019-03-15T01:29:38.669Z,0.70
2019-03-15T01:32:08.316Z,1.10
2019-03-15T01:34:37.916Z,0.60
2019-03-15T01:37:07.537Z,0.87
2019-03-15T01:39:37.166Z,0.83
2019-03-15T01:42:06.889Z,0.80
2019-03-15T01:44:36.648Z,0.87
2019-03-15T01:47:06.246Z,0.80
2019-03-15T01:49:55.241Z,0.67
2019-03-15T01:52:24.837Z,0.80
2019-03-15T01:54:54.502Z,0.80
2019-03-15T01:57:24.093Z,0.70
2019-03-15T01:59:54.014Z,0.90
2019-03-15T02:02:23.617Z,0.87
2019-03-15T02:04:53.277Z,0.80
2019-03-15T02:07:23.249Z,0.70
2019-03-15T02:09:52.873Z,0.80
2019-03-15T02:12:22.481Z,0.80
2019-03-15T02:14:53.470Z,0.80
2019-03-15T02:17:23.209Z,1.00
2019-03-15T02:19:53.227Z,1.00
2019-03-15T02:22:22.830Z,0.80
2019-03-15T02:24:52.750Z,0.80
2019-03-15T02:27:22.669Z,1.20
2019-03-15T02:29:52.302Z,0.87
2019-03-15T02:32:21.937Z,0.90
2019-03-15T02:34:51.904Z,0.90
2019-03-15T02:37:21.918Z,0.83
2019-03-15T02:39:51.542Z,0.70
2019-03-15T02:42:21.542Z,1.17
2019-03-15T02:44:51.216Z,0.93
2019-03-15T02:47:20.842Z,0.80
2019-03-15T02:49:50.573Z,1.03
2019-03-15T02:52:20.293Z,0.97
2019-03-15T02:54:49.882Z,0.90
2019-03-15T02:57:19.565Z,0.93
2019-03-15T02:59:49.198Z,0.90
2019-03-15T03:02:19.334Z,0.87
2019-03-15T03:04:48.879Z,0.80
2019-03-15T03:07:18.509Z,0.80
2019-03-15T03:09:48.205Z,0.80
2019-03-15T03:12:17.887Z,0.93
2019-03-15T03:14:47.533Z,1.00
2019-03-15T03:17:17.495Z,0.90
2019-03-15T03:19:47.180Z,1.30
2019-03-15T03:22:16.987Z,0.90
2019-03-15T03:24:47.186Z,0.80
2019-03-15T03:27:17.225Z,0.80
2019-03-15T03:29:47.597Z,0.80
2019-03-15T03:32:17.881Z,0.90
2019-03-15T03:34:47.580Z,1.23
2019-03-15T03:37:18.803Z,0.63
2019-03-15T03:39:48.511Z,0.90
2019-03-15T03:42:18.151Z,0.67
2019-03-15T03:44:48.169Z,0.80
2019-03-15T03:47:18.436Z,0.87
2019-03-15T03:49:48.406Z,0.90
2019-03-15T03:52:18.144Z,0.80
2019-03-15T03:54:48.032Z,0.67
2019-03-15T03:57:17.759Z,0.90
2019-03-15T03:59:47.516Z,0.67
2019-03-15T04:02:17.376Z,1.20
2019-03-15T04:04:47.122Z,0.90
2019-03-15T04:07:16.887Z,0.80
2019-03-15T04:09:46.534Z,1.10
2019-03-15T04:12:16.251Z,0.80
2019-03-15T04:14:46.120Z,0.90
2019-03-15T04:17:15.819Z,0.70
2019-03-15T04:19:45.595Z,0.77
2019-03-15T04:22:15.304Z,0.90
2019-03-15T04:24:44.940Z,0.90
2019-03-15T04:27:14.571Z,1.00
2019-03-15T04:29:44.486Z,0.80
2019-03-15T04:32:14.390Z,0.80
2019-03-15T04:34:44.028Z,0.70
2019-03-15T04:37:13.730Z,0.70
2019-03-15T04:39:43.411Z,0.70
2019-03-15T04:42:13.019Z,0.90
2019-03-15T04:44:42.680Z,1.13
2019-03-15T04:47:12.319Z,0.90
2019-03-15T04:49:41.956Z,0.90
2019-03-15T04:52:11.866Z,1.00
2019-03-15T04:54:41.513Z,0.80
2019-03-15T04:57:11.137Z,0.70
2019-03-15T04:59:40.799Z,0.83
2019-03-15T05:02:10.417Z,0.80
2019-03-15T05:04:40.074Z,0.80
2019-03-15T05:07:09.742Z,0.77
2019-03-15T05:09:39.401Z,0.90
2019-03-15T05:12:09.001Z,0.70
2019-03-15T05:14:38.629Z,0.80
2019-03-15T05:17:08.317Z,0.73
2019-03-15T05:19:37.995Z,1.00
2019-03-15T05:22:07.685Z,0.73
2019-03-15T05:24:37.317Z,1.00
2019-03-15T05:27:07.026Z,1.03
2019-03-15T05:29:36.634Z,1.10
2019-03-15T05:32:06.391Z,0.70
2019-03-15T05:34:36.010Z,0.90
2019-03-15T05:37:05.798Z,0.83
2019-03-15T05:39:35.420Z,0.77
2019-03-15T05:42:05.203Z,1.00
2019-03-15T05:44:34.812Z,0.80
2019-03-15T05:47:04.541Z,1.00
2019-03-15T05:49:34.142Z,0.80
2019-03-15T05:52:03.945Z,0.93
2019-03-15T05:54:34.096Z,0.70
2019-03-15T05:57:03.769Z,0.93
2019-03-15T05:59:33.569Z,0.80
2019-03-15T06:02:03.271Z,0.83
2019-03-15T06:04:32.880Z,0.80
2019-03-15T06:07:02.632Z,1.00
2019-03-15T06:09:32.225Z,0.70
2019-03-15T06:12:01.869Z,0.83
2019-03-15T06:14:31.876Z,0.83
2019-03-15T06:17:01.559Z,0.93
2019-03-15T06:19:31.362Z,0.90
2019-03-15T06:22:01.143Z,0.90
2019-03-15T06:24:30.786Z,0.90
2019-03-15T06:27:00.816Z,1.00
2019-03-15T06:29:30.771Z,0.87
2019-03-15T06:32:00.479Z,0.77
2019-03-15T06:34:30.485Z,0.60
2019-03-15T06:37:00.163Z,0.93
2019-03-15T06:39:29.880Z,0.97
2019-03-15T06:41:59.670Z,1.20
2019-03-15T06:44:29.310Z,0.80
2019-03-15T06:46:58.961Z,1.10
2019-03-15T06:49:28.942Z,0.90
2019-03-15T06:51:58.552Z,0.80
2019-03-15T06:54:28.267Z,0.90
2019-03-15T06:56:58.008Z,0.90
2019-03-15T06:59:27.617Z,1.00
2019-03-15T07:01:57.336Z,1.20
2019-03-15T07:04:26.939Z,0.73
2019-03-15T07:06:56.657Z,0.90
2019-03-15T07:09:26.253Z,0.90
2019-03-15T07:12:08.679Z,0.80
2019-03-15T07:14:27.342Z,0.97
2019-03-15T07:16:57.211Z,1.00
2019-03-15T07:19:30.316Z,1.03
2019-03-15T07:21:58.176Z,0.80
2019-03-15T07:24:27.770Z,0.90
2019-03-15T07:26:57.335Z,0.97
2019-03-15T07:29:27.369Z,1.43
2019-03-15T07:31:57.068Z,0.87
2019-03-15T07:34:26.705Z,1.00
2019-03-15T07:36:56.700Z,1.00
2019-03-15T07:39:26.853Z,1.17
2019-03-15T07:41:56.697Z,1.00
2019-03-15T07:44:26.650Z,1.13
2019-03-15T07:46:56.310Z,1.23
2019-03-15T07:49:26.039Z,1.20
2019-03-15T07:51:55.822Z,1.50
2019-03-15T07:54:37.483Z,1.37
2019-03-15T07:56:57.448Z,1.23
2019-03-15T07:59:28.018Z,1.30
2019-03-15T08:01:57.741Z,1.20
2019-03-15T08:04:28.054Z,1.30
2019-03-15T08:06:57.799Z,0.90
2019-03-15T08:09:27.475Z,1.20
2019-03-15T08:11:57.460Z,1.10
2019-03-15T08:14:27.150Z,1.40
2019-03-15T08:16:56.994Z,1.20
2019-03-15T08:19:26.674Z,1.00
2019-03-15T08:21:56.783Z,1.40
2019-03-15T08:24:26.619Z,1.33
2019-03-15T08:26:56.443Z,1.23
2019-03-15T08:29:26.054Z,1.37
2019-03-15T08:31:55.799Z,1.13
2019-03-15T08:34:25.541Z,1.60
2019-03-15T08:36:55.202Z,1.30
2019-03-15T08:39:24.845Z,1.30
2019-03-15T08:41:54.792Z,1.47
2019-03-15T08:44:24.796Z,1.30
2019-03-15T08:46:54.414Z,1.30
2019-03-15T08:49:24.071Z,1.50
2019-03-15T08:52:03.383Z,1.27
2019-03-15T08:54:25.037Z,1.50
2019-03-15T08:56:55.003Z,1.30
2019-03-15T08:59:24.784Z,1.40
2019-03-15T09:01:54.419Z,1.40
2019-03-15T09:04:24.076Z,1.57
2019-03-15T09:06:53.665Z,1.90
2019-03-15T09:09:23.470Z,1.57
2019-03-15T09:11:53.083Z,1.60
2019-03-15T09:14:22.733Z,1.50
2019-03-15T09:16:52.355Z,1.57
2019-03-15T09:19:22.172Z,1.50
2019-03-15T09:21:51.819Z,1.63
2019-03-15T09:24:21.511Z,1.70
2019-03-15T09:26:51.251Z,1.90
2019-03-15T09:29:21.213Z,1.70
2019-03-15T09:32:04.439Z,1.83
2019-03-15T09:34:22.366Z,1.27
2019-03-15T09:36:52.172Z,1.77
2019-03-15T09:39:22.961Z,2.17
2019-03-15T09:41:52.984Z,2.37
2019-03-15T09:44:22.755Z,1.90
2019-03-15T09:46:52.541Z,1.93
2019-03-15T09:49:22.237Z,2.00
2019-03-15T09:51:52.051Z,2.43
2019-03-15T09:54:21.808Z,2.00
2019-03-15T09:56:51.715Z,2.30
2019-03-15T09:59:21.407Z,2.23
2019-03-15T10:01:51.092Z,2.50
2019-03-15T10:04:20.720Z,2.77
2019-03-15T10:06:50.748Z,2.37
2019-03-15T10:09:20.475Z,2.10
2019-03-15T10:11:50.271Z,2.70
2019-03-15T10:14:19.954Z,2.53
2019-03-15T10:16:49.563Z,2.00
2019-03-15T10:19:19.506Z,2.33
2019-03-15T10:21:49.133Z,2.50
2019-03-15T10:24:18.871Z,2.40
2019-03-15T10:26:49.067Z,2.57
2019-03-15T10:29:19.788Z,2.13
2019-03-15T10:31:49.538Z,2.27
2019-03-15T10:34:19.244Z,2.53
2019-03-15T10:36:50.029Z,2.03
2019-03-15T10:39:20.023Z,1.93
2019-03-15T10:41:49.722Z,2.10
2019-03-15T10:44:19.614Z,1.83
2019-03-15T10:46:49.578Z,2.37
2019-03-15T10:49:19.174Z,1.80
2019-03-15T10:51:49.119Z,1.93
2019-03-15T10:54:18.735Z,2.10
2019-03-15T10:56:48.470Z,2.30
2019-03-15T10:59:18.336Z,2.23
2019-03-15T11:01:48.110Z,2.37
2019-03-15T11:04:18.062Z,2.10
2019-03-15T11:06:47.898Z,2.10
2019-03-15T11:09:17.495Z,2.10
2019-03-15T11:11:47.323Z,2.00
2019-03-15T11:14:16.990Z,2.07
2019-03-15T11:16:46.661Z,1.97
2019-03-15T11:19:16.283Z,2.00
2019-03-15T11:21:46.637Z,2.23
2019-03-15T11:24:16.248Z,2.03
2019-03-15T11:26:46.083Z,2.13
2019-03-15T11:29:15.848Z,1.90
2019-03-15T11:31:45.476Z,2.20
2019-03-15T11:34:15.301Z,2.30
2019-03-15T11:36:57.515Z,1.70
2019-03-15T11:39:16.264Z,1.97
2019-03-15T11:41:45.883Z,1.80
2019-03-15T11:44:15.536Z,1.80
2019-03-15T11:46:45.070Z,2.30
2019-03-15T11:49:14.717Z,1.70
2019-03-15T11:51:44.311Z,2.13
2019-03-15T11:54:14.041Z,1.80
2019-03-15T11:56:43.707Z,1.93
2019-03-15T11:59:13.419Z,1.73
2019-03-15T12:01:43.018Z,2.20
2019-03-15T12:04:12.747Z,1.83
2019-03-15T12:06:42.653Z,1.90
2019-03-15T12:09:12.357Z,2.00
2019-03-15T12:11:42.039Z,1.83
2019-03-15T12:14:11.781Z,2.10
2019-03-15T12:16:41.430Z,2.47
2019-03-15T12:19:11.215Z,2.10
2019-03-15T12:21:40.837Z,2.13
2019-03-15T12:24:10.551Z,2.30
2019-03-15T12:26:40.856Z,2.30
2019-03-15T12:29:10.770Z,2.27
2019-03-15T12:31:40.429Z,2.70
2019-03-15T12:34:10.100Z,2.17
2019-03-15T12:36:40.335Z,2.47
2019-03-15T12:39:10.036Z,2.50
2019-03-15T12:41:39.731Z,2.40
2019-03-15T12:44:10.674Z,2.80
2019-03-15T12:46:40.358Z,2.50
2019-03-15T12:49:10.144Z,2.50
2019-03-15T12:51:39.854Z,2.67
2019-03-15T12:54:09.487Z,2.80
2019-03-15T12:56:52.751Z,2.57
2019-03-15T12:59:10.917Z,2.30
2019-03-15T13:01:40.615Z,2.87
2019-03-15T13:04:10.268Z,2.97
2019-03-15T13:06:39.891Z,2.77
2019-03-15T13:09:09.910Z,2.60
2019-03-15T13:11:39.600Z,2.50
2019-03-15T13:14:09.290Z,2.60
2019-03-15T13:16:38.900Z,2.77
2019-03-15T13:19:08.574Z,2.70
2019-03-15T13:21:38.285Z,2.60
2019-03-15T13:24:07.939Z,2.63
2019-03-15T13:26:37.605Z,2.67
2019-03-15T13:29:07.677Z,2.27
2019-03-15T13:31:37.347Z,2.40
2019-03-15T13:34:07.029Z,2.43
2019-03-15T13:36:36.668Z,2.37
2019-03-15T13:39:06.852Z,2.30
2019-03-15T13:41:36.505Z,2.70
2019-03-15T13:44:06.286Z,2.50
2019-03-15T13:46:37.463Z,2.47
2019-03-15T13:49:07.847Z,2.10
2019-03-15T13:51:37.560Z,2.17
2019-03-15T13:54:07.198Z,2.33
2019-03-15T13:56:36.878Z,2.30
2019-03-15T13:59:06.972Z,2.13
2019-03-15T14:01:36.972Z,1.87
2019-03-15T14:04:06.704Z,1.90
2019-03-15T14:06:36.946Z,1.83
2019-03-15T14:09:07.820Z,1.90
2019-03-15T14:11:37.462Z,1.60
2019-03-15T14:14:07.262Z,2.10
2019-03-15T14:16:37.079Z,1.90
2019-03-15T14:19:06.885Z,1.80
2019-03-15T14:21:36.501Z,1.33
2019-03-15T14:24:06.888Z,1.70
2019-03-15T14:26:36.629Z,1.70
2019-03-15T14:29:06.375Z,2.27
2019-03-15T14:31:36.101Z,1.80
2019-03-15T14:34:05.707Z,2.10
2019-03-15T14:36:35.469Z,2.07
2019-03-15T14:39:06.751Z,1.90
2019-03-15T14:41:36.479Z,1.93
2019-03-15T14:44:06.827Z,2.33
2019-03-15T14:46:36.611Z,2.20
2019-03-15T14:49:06.245Z,1.90
2019-03-15T14:51:35.925Z,1.80
2019-03-15T14:54:05.559Z,1.73
2019-03-15T14:56:35.269Z,1.70
2019-03-15T14:59:05.046Z,1.73
2019-03-15T15:01:34.688Z,1.60
2019-03-15T15:04:04.471Z,1.90
2019-03-15T15:06:34.048Z,1.90
2019-03-15T15:09:05.305Z,1.43
2019-03-15T15:11:35.044Z,1.73
2019-03-15T15:14:04.847Z,1.40
2019-03-15T15:16:34.476Z,1.53
2019-03-15T15:19:04.532Z,2.00
2019-03-15T15:21:34.280Z,1.40
2019-03-15T15:24:04.147Z,1.60
2019-03-15T15:26:33.866Z,1.57
2019-03-15T15:29:03.477Z,1.50
2019-03-15T15:31:33.187Z,1.67
2019-03-15T15:34:03.198Z,1.30
2019-03-15T15:36:32.943Z,1.60
2019-03-15T15:39:02.628Z,1.20
2019-03-15T15:41:32.412Z,2.13
2019-03-15T15:44:02.399Z,1.30
2019-03-15T15:46:32.467Z,1.93
2019-03-15T15:49:02.079Z,1.90
2019-03-15T15:51:31.780Z,1.80
2019-03-15T15:54:01.789Z,1.53
2019-03-15T15:56:31.814Z,1.53
2019-03-15T15:59:03.143Z,1.47
2019-03-15T16:01:32.738Z,1.30
2019-03-15T16:04:02.441Z,1.60
2019-03-15T16:06:32.045Z,1.40
2019-03-15T16:09:01.717Z,1.30
2019-03-15T16:11:31.428Z,1.40
2019-03-15T16:14:01.057Z,1.50
2019-03-15T16:16:31.023Z,1.60
2019-03-15T16:19:00.756Z,1.20
2019-03-15T16:21:30.394Z,1.37
2019-03-15T16:24:00.049Z,1.70
2019-03-15T16:26:29.644Z,1.30
2019-03-15T16:28:59.364Z,1.27
2019-03-15T16:31:29.283Z,1.20
2019-03-15T16:33:58.913Z,1.57
2019-03-15T16:36:28.720Z,1.00
2019-03-15T16:38:58.394Z,1.30
2019-03-15T16:41:28.040Z,1.27
2019-03-15T16:43:57.691Z,1.13
2019-03-15T16:46:27.345Z,1.40
2019-03-15T16:48:56.947Z,1.07
2019-03-15T16:51:26.732Z,1.20
2019-03-15T16:53:56.370Z,1.13
2019-03-15T16:56:26.115Z,1.10
2019-03-15T16:58:55.777Z,1.20
2019-03-15T17:01:25.395Z,1.13
2019-03-15T17:03:55.158Z,1.37
2019-03-15T17:06:24.943Z,1.30
2019-03-15T17:08:54.773Z,1.40
2019-03-15T17:11:24.477Z,1.30
2019-03-15T17:13:54.271Z,1.30
2019-03-15T17:16:23.951Z,1.37
2019-03-15T17:18:53.877Z,1.60
2019-03-15T17:21:23.898Z,1.47
2019-03-15T17:23:53.527Z,1.40
2019-03-15T17:26:23.291Z,1.70
2019-03-15T17:28:58.571Z,1.60
2019-03-15T17:31:24.199Z,1.40
2019-03-15T17:33:53.980Z,1.83
2019-03-15T17:36:23.760Z,1.63
2019-03-15T17:38:53.826Z,1.50
2019-03-15T17:41:23.454Z,1.30
2019-03-15T17:43:57.087Z,1.57
2019-03-15T17:46:27.094Z,1.50
2019-03-15T17:48:56.869Z,1.10
2019-03-15T17:51:26.564Z,1.33
2019-03-15T17:53:56.333Z,1.50
2019-03-15T17:56:25.967Z,1.53
2019-03-15T17:58:55.880Z,1.40
2019-03-15T18:01:47.877Z,1.10
2019-03-15T18:04:09.115Z,1.53
2019-03-15T18:06:38.975Z,1.40
2019-03-15T18:09:08.659Z,1.20
2019-03-15T18:11:38.360Z,1.30
2019-03-15T18:14:08.371Z,1.43
2019-03-15T18:16:38.024Z,1.27
2019-03-15T18:19:07.690Z,1.07
2019-03-15T18:21:37.432Z,1.30
2019-03-15T18:24:07.110Z,1.13
2019-03-15T18:26:36.828Z,1.07
2019-03-15T18:29:06.600Z,1.33
2019-03-15T18:31:36.874Z,1.40
2019-03-15T18:34:06.676Z,1.53
2019-03-15T18:36:47.414Z,1.20
2019-03-15T18:39:19.224Z,1.70
2019-03-15T18:41:50.552Z,1.10
2019-03-15T18:44:20.047Z,1.20
2019-03-15T18:46:50.058Z,1.20
2019-03-15T18:49:19.841Z,1.20
2019-03-15T18:51:49.791Z,1.37
2019-03-15T18:54:19.416Z,1.23
2019-03-15T18:56:49.157Z,1.07
2019-03-15T18:59:18.802Z,1.10
2019-03-15T19:01:48.453Z,1.00
2019-03-15T19:04:18.174Z,0.87
2019-03-15T19:06:48.000Z,1.00
2019-03-15T19:09:17.714Z,1.40
2019-03-15T19:11:47.432Z,0.90
2019-03-15T19:14:17.145Z,1.07
2019-03-15T19:16:49.854Z,1.17
2019-03-15T19:19:19.764Z,0.90
2019-03-15T19:21:49.462Z,1.30
2019-03-15T19:24:19.127Z,0.97
2019-03-15T19:26:53.898Z,1.20
2019-03-15T19:29:24.543Z,1.00
2019-03-15T19:31:54.238Z,1.10
2019-03-15T19:34:23.901Z,1.00
2019-03-15T19:36:53.529Z,1.00
2019-03-15T19:39:23.166Z,1.00
2019-03-15T19:41:52.846Z,1.00
2019-03-15T19:44:22.552Z,0.93
2019-03-15T19:46:54.017Z,1.00
2019-03-15T19:49:23.672Z,0.97
2019-03-15T19:51:53.325Z,1.00
2019-03-15T19:54:23.006Z,0.93
2019-03-15T19:56:52.740Z,1.10
2019-03-15T19:59:22.377Z,0.80
2019-03-15T20:01:52.044Z,1.00
2019-03-15T20:04:21.927Z,1.07
2019-03-15T20:06:51.720Z,1.00
2019-03-15T20:09:21.443Z,1.10
2019-03-15T20:11:51.314Z,1.00
2019-03-15T20:14:21.136Z,1.10
2019-03-15T20:16:51.074Z,1.00
2019-03-15T20:19:20.879Z,0.90
2019-03-15T20:21:51.111Z,1.10
2019-03-15T20:24:21.809Z,0.87
2019-03-15T20:26:51.477Z,1.10
2019-03-15T20:29:21.223Z,1.10
2019-03-15T20:31:52.528Z,1.17
2019-03-15T20:34:22.387Z,1.50
2019-03-15T20:36:53.238Z,1.80
2019-03-15T20:39:22.932Z,1.30
2019-03-15T20:41:52.768Z,1.20
2019-03-15T20:44:28.616Z,1.27
2019-03-15T20:46:54.035Z,1.00
2019-03-15T20:49:24.484Z,1.10
2019-03-15T20:51:54.819Z,1.10
2019-03-15T20:54:27.942Z,1.27
2019-03-15T20:56:57.797Z,1.30
2019-03-15T20:59:27.812Z,0.80
2019-03-15T21:01:57.586Z,1.00
2019-03-15T21:04:27.284Z,0.97
2019-03-15T21:06:57.026Z,1.10
2019-03-15T21:09:27.373Z,1.27
2019-03-15T21:12:00.250Z,1.23
2019-03-15T21:14:31.468Z,1.13
2019-03-15T21:17:03.060Z,1.00
2019-03-15T21:19:33.145Z,1.27
2019-03-15T21:22:03.177Z,0.93
2019-03-15T21:24:33.227Z,0.90
2019-03-15T21:27:03.434Z,1.17
2019-03-15T21:29:33.577Z,1.20
2019-03-15T21:32:04.086Z,1.23
2019-03-15T21:34:34.229Z,1.30
2019-03-15T21:37:04.342Z,1.40
2019-03-15T21:39:34.841Z,0.93
2019-03-15T21:42:05.147Z,0.93
2019-03-15T21:44:35.187Z,1.70
2019-03-15T21:47:05.246Z,1.00
2019-03-15T21:49:35.634Z,1.20
2019-03-15T21:52:05.801Z,1.20
2019-03-15T21:54:35.765Z,0.90
2019-03-15T21:57:06.003Z,1.00
2019-03-15T21:59:39.016Z,1.10
2019-03-15T22:02:08.119Z,1.10
2019-03-15T22:04:38.102Z,0.90
2019-03-15T22:07:08.193Z,0.93
2019-03-15T22:09:38.236Z,0.90
2019-03-15T22:12:08.542Z,1.00
2019-03-15T22:14:39.647Z,1.30
2019-03-15T22:17:09.576Z,1.20
2019-03-15T22:19:39.724Z,1.10
2019-03-15T22:22:09.874Z,0.93
2019-03-15T22:24:39.925Z,0.73
2019-03-15T22:27:10.032Z,1.30
2019-03-15T22:29:48.612Z,1.00
2019-03-15T22:32:30.998Z,0.90
2019-03-15T22:35:01.307Z,0.90
2019-03-15T22:37:31.290Z,1.03
2019-03-15T22:40:01.386Z,0.77
2019-03-15T22:42:31.646Z,0.93
2019-03-15T22:45:01.617Z,0.90
2019-03-15T22:47:31.765Z,0.70
2019-03-15T22:50:01.768Z,0.70
2019-03-15T22:52:31.416Z,0.80
2019-03-15T22:55:01.056Z,0.80
2019-03-15T22:57:30.722Z,1.03
2019-03-15T23:00:00.446Z,0.93
2019-03-15T23:02:30.753Z,1.10
2019-03-15T23:05:00.585Z,0.90
2019-03-15T23:07:31.020Z,0.93
2019-03-15T23:10:00.741Z,0.97
2019-03-15T23:12:30.558Z,0.83
2019-03-15T23:15:00.385Z,0.90
2019-03-15T23:17:30.674Z,1.00
2019-03-15T23:20:01.722Z,0.80
2019-03-15T23:22:31.353Z,1.00
2019-03-15T23:25:01.197Z,0.90
2019-03-15T23:27:30.883Z,0.80
2019-03-15T23:30:00.821Z,0.90
2019-03-15T23:32:31.025Z,0.83
2019-03-15T23:35:01.048Z,0.90
2019-03-15T23:37:31.098Z,0.90
2019-03-15T23:40:01.226Z,0.97
2019-03-15T23:42:31.384Z,0.77
2019-03-15T23:45:01.493Z,0.83
2019-03-15T23:47:31.636Z,0.87
2019-03-15T23:50:01.682Z,0.80
2019-03-15T23:52:31.535Z,0.80
2019-03-15T23:55:01.609Z,0.90
2019-03-15T23:57:31.604Z,0.80
